San Carlos Centro, Argentina
Current Conditions -  °F | °C
As of 2:00 AM on Sunday 26 Oct 2014 (Local Time) from SAAR Reporting Station
Clear Clear  
Wind Chill: 73°   Ceiling: Unl
Heat Index: 73°   Visibility: 6mi
Dew Point: 66°   Wind: 7mph
Humidity: 78%   Direction: 20°NNE
Pressure: 29.8"   Gusts: NA
Location:  31.74°S, 61.1°W
Report Text: SAAR 260500Z 02006KT CAVOK 23/19 Q1009
Loading
Personal Weather Stations






























Interactive Weather Map
Tropical Storm Tracking
New forecast layout! Learn more

10-Day Weather Forecast

Advertisements
Track Severe Weather on mobile